createdAt,value
2022-09-03T00:00:02.588Z,12.23
2022-09-03T00:02:38.409Z,12.47
2022-09-03T00:05:40.224Z,10.50
2022-09-03T00:08:07.277Z,12.80
2022-09-03T00:10:55.463Z,13.13
2022-09-03T00:13:50.156Z,12.23
2022-09-03T00:16:21.726Z,11.07
2022-09-03T00:18:56.513Z,10.80
2022-09-03T00:21:36.177Z,11.20
2022-09-03T00:24:06.952Z,10.40
2022-09-03T00:26:45.972Z,10.60
2022-09-03T00:29:17.945Z,11.03
2022-09-03T00:31:48.618Z,9.23
2022-09-03T00:34:31.473Z,10.83
2022-09-03T00:36:59.132Z,10.03
2022-09-03T00:39:28.534Z,11.13
2022-09-03T00:42:14.108Z,10.30
2022-09-03T00:45:16.399Z,10.60
2022-09-03T00:48:17.495Z,8.00
2022-09-03T00:50:53.693Z,7.53
2022-09-03T00:53:52.168Z,6.87
2022-09-03T00:56:21.773Z,8.10
2022-09-03T00:59:27.947Z,7.53
2022-09-03T01:02:12.171Z,6.97
2022-09-03T01:05:15.419Z,6.87
2022-09-03T01:08:32.233Z,7.43
2022-09-03T01:11:35.282Z,6.80
2022-09-03T01:14:22.745Z,6.07
2022-09-03T01:17:11.057Z,7.97
2022-09-03T01:19:58.374Z,6.70
2022-09-03T01:22:30.985Z,6.07
2022-09-03T01:25:17.739Z,7.17
2022-09-03T01:28:06.822Z,6.50
2022-09-03T01:30:40.209Z,7.60
2022-09-03T01:33:23.990Z,6.73
2022-09-03T01:36:13.801Z,6.67
2022-09-03T01:38:50.206Z,5.87
2022-09-03T01:42:20.808Z,6.10
2022-09-03T01:45:06.623Z,7.50
2022-09-03T01:47:41.160Z,5.77
2022-09-03T01:50:34.884Z,6.37
2022-09-03T01:53:20.074Z,6.00
2022-09-03T01:56:07.359Z,5.90
2022-09-03T01:59:02.752Z,5.53
2022-09-03T02:01:46.649Z,5.10
2022-09-03T02:04:24.956Z,6.13
2022-09-03T02:06:53.673Z,5.73
2022-09-03T02:09:21.317Z,5.50
2022-09-03T02:11:57.521Z,6.27
2022-09-03T02:14:26.818Z,5.00
2022-09-03T02:16:56.130Z,5.57
2022-09-03T02:19:24.563Z,5.00
2022-09-03T02:21:54.423Z,5.13
2022-09-03T02:24:21.665Z,5.73
2022-09-03T02:26:48.670Z,5.50
2022-09-03T02:29:17.525Z,5.67
2022-09-03T02:31:45.284Z,5.60
2022-09-03T02:34:12.428Z,5.43
2022-09-03T02:36:42.658Z,5.27
2022-09-03T02:39:09.963Z,4.77
2022-09-03T02:41:37.161Z,5.07
2022-09-03T02:44:11.203Z,5.73
2022-09-03T02:46:53.553Z,6.03
2022-09-03T02:49:20.737Z,5.37
2022-09-03T02:51:47.783Z,5.30
2022-09-03T02:54:20.742Z,5.77
2022-09-03T02:56:49.811Z,4.80
2022-09-03T02:59:18.036Z,4.27
2022-09-03T03:01:46.707Z,4.90
2022-09-03T03:04:14.598Z,4.87
2022-09-03T03:06:41.725Z,4.43
2022-09-03T03:09:08.994Z,5.23
2022-09-03T03:11:37.093Z,4.87
2022-09-03T03:14:04.598Z,4.83
2022-09-03T03:16:31.690Z,4.60
2022-09-03T03:18:58.867Z,5.43
2022-09-03T03:21:26.025Z,4.67
2022-09-03T03:23:53.028Z,4.53
2022-09-03T03:26:21.501Z,4.70
2022-09-03T03:28:49.380Z,4.90
2022-09-03T03:31:21.530Z,4.43
2022-09-03T03:33:56.602Z,4.10
2022-09-03T03:36:25.917Z,4.77
2022-09-03T03:38:58.129Z,5.20
2022-09-03T03:41:27.877Z,4.33
2022-09-03T03:43:56.226Z,5.13
2022-09-03T03:46:24.881Z,4.33
2022-09-03T03:48:52.860Z,5.07
2022-09-03T03:51:20.030Z,5.37
2022-09-03T03:53:47.244Z,5.23
2022-09-03T03:56:16.429Z,4.97
2022-09-03T03:58:44.310Z,5.17
2022-09-03T04:01:15.639Z,5.13
2022-09-03T04:03:43.338Z,4.77
2022-09-03T04:06:13.923Z,4.80
2022-09-03T04:08:43.016Z,5.07
2022-09-03T04:11:21.208Z,4.47
2022-09-03T04:13:48.788Z,4.47
2022-09-03T04:16:18.589Z,5.10
2022-09-03T04:18:46.301Z,4.97
2022-09-03T04:21:20.004Z,5.00
2022-09-03T04:23:50.736Z,5.10
2022-09-03T04:26:24.961Z,5.03
2022-09-03T04:28:52.358Z,5.83
2022-09-03T04:31:20.904Z,4.47
2022-09-03T04:33:49.326Z,5.57
2022-09-03T04:36:20.510Z,5.43
2022-09-03T04:38:51.580Z,5.77
2022-09-03T04:41:21.513Z,4.87
2022-09-03T04:43:51.308Z,5.77
2022-09-03T04:46:20.809Z,4.43
2022-09-03T04:48:53.334Z,6.40
2022-09-03T04:51:23.341Z,5.60
2022-09-03T04:53:57.161Z,5.93
2022-09-03T04:56:27.257Z,5.63
2022-09-03T04:58:56.921Z,5.50
2022-09-03T05:01:26.244Z,5.03
2022-09-03T05:03:58.173Z,5.30
2022-09-03T05:06:26.736Z,5.17
2022-09-03T05:08:55.670Z,4.97
2022-09-03T05:11:23.811Z,4.70
2022-09-03T05:13:53.845Z,5.13
2022-09-03T05:16:22.188Z,4.93
2022-09-03T05:18:52.874Z,4.43
2022-09-03T05:21:20.334Z,4.63
2022-09-03T05:23:48.862Z,5.00
2022-09-03T05:26:18.600Z,5.37
2022-09-03T05:28:46.410Z,4.70
2022-09-03T05:31:16.666Z,5.10
2022-09-03T05:33:49.811Z,4.57
2022-09-03T05:36:23.258Z,4.13
2022-09-03T05:38:50.716Z,4.40
2022-09-03T05:41:19.006Z,5.10
2022-09-03T05:43:55.214Z,4.20
2022-09-03T05:46:31.668Z,5.13
2022-09-03T05:49:03.179Z,4.47
2022-09-03T05:51:31.442Z,4.80
2022-09-03T05:53:59.231Z,5.33
2022-09-03T05:56:28.576Z,4.17
2022-09-03T05:58:59.857Z,4.60
2022-09-03T06:01:29.823Z,4.77
2022-09-03T06:04:10.601Z,5.13
2022-09-03T06:06:40.293Z,4.30
2022-09-03T06:09:13.838Z,4.30
2022-09-03T06:11:42.796Z,4.70
2022-09-03T06:14:12.287Z,4.70
2022-09-03T06:16:44.613Z,4.47
2022-09-03T06:19:14.269Z,4.33
2022-09-03T06:21:43.398Z,4.07
2022-09-03T06:24:12.724Z,4.00
2022-09-03T06:26:42.983Z,4.50
2022-09-03T06:29:10.765Z,4.50
2022-09-03T06:31:38.026Z,3.97
2022-09-03T06:34:06.117Z,4.10
2022-09-03T06:36:33.740Z,4.27
2022-09-03T06:39:01.499Z,3.73
2022-09-03T06:41:33.151Z,4.27
2022-09-03T06:44:06.396Z,3.90
2022-09-03T06:46:39.004Z,4.30
2022-09-03T06:49:06.123Z,3.77
2022-09-03T06:51:33.762Z,3.93
2022-09-03T06:54:09.049Z,3.92
2022-09-03T06:56:40.485Z,4.32
2022-09-03T06:59:13.873Z,3.73
2022-09-03T07:01:44.267Z,3.83
2022-09-03T07:04:16.410Z,3.77
2022-09-03T07:06:44.464Z,3.55
2022-09-03T07:09:12.835Z,3.73
2022-09-03T07:11:47.251Z,3.20
2022-09-03T07:14:16.102Z,3.42
2022-09-03T07:16:43.844Z,3.78
2022-09-03T07:19:13.419Z,3.20
2022-09-03T07:21:49.234Z,3.03
2022-09-03T07:24:18.433Z,3.63
2022-09-03T07:26:47.312Z,3.38
2022-09-03T07:29:16.097Z,3.35
2022-09-03T07:31:44.338Z,3.22
2022-09-03T07:34:13.600Z,3.13
2022-09-03T07:36:48.760Z,4.03
2022-09-03T07:39:18.043Z,2.92
2022-09-03T07:41:46.489Z,2.60
2022-09-03T07:44:19.422Z,2.97
2022-09-03T07:46:47.970Z,2.95
2022-09-03T07:49:15.643Z,2.00
2022-09-03T07:51:42.553Z,3.38
2022-09-03T07:54:11.576Z,2.30
2022-09-03T07:56:40.105Z,2.75
2022-09-03T07:59:08.191Z,3.58
2022-09-03T08:01:35.925Z,2.50
2022-09-03T08:04:04.441Z,3.42
2022-09-03T08:06:34.127Z,1.90
2022-09-03T08:09:05.501Z,2.40
2022-09-03T08:11:36.519Z,2.28
2022-09-03T08:14:08.957Z,1.98
2022-09-03T08:16:42.480Z,2.35
2022-09-03T08:19:11.495Z,2.28
2022-09-03T08:21:40.069Z,2.15
2022-09-03T08:24:07.209Z,2.50
2022-09-03T08:26:37.035Z,1.83
2022-09-03T08:29:05.707Z,1.90
2022-09-03T08:31:34.090Z,6.50
2022-09-03T08:34:04.965Z,4.00
2022-09-03T08:36:34.066Z,1.75
2022-09-03T08:39:09.989Z,2.10
2022-09-03T08:42:11.576Z,2.10
2022-09-03T08:44:59.405Z,1.77
2022-09-03T08:47:53.568Z,2.17
2022-09-03T08:50:45.939Z,2.35
2022-09-03T08:53:41.775Z,1.65
2022-09-03T08:56:12.643Z,1.50
2022-09-03T08:58:43.918Z,1.80
2022-09-03T09:01:38.703Z,2.53
2022-09-03T09:04:27.496Z,1.58
2022-09-03T09:07:01.045Z,1.67
2022-09-03T09:09:35.397Z,1.63
2022-09-03T09:12:08.656Z,1.70
2022-09-03T09:14:44.682Z,1.25
2022-09-03T09:17:32.596Z,1.30
2022-09-03T09:20:17.611Z,1.40
2022-09-03T09:22:56.640Z,1.30
2022-09-03T09:25:26.386Z,1.42
2022-09-03T09:28:08.459Z,1.25
2022-09-03T09:30:36.204Z,1.48
2022-09-03T09:33:03.415Z,1.67
2022-09-03T09:35:30.547Z,1.50
2022-09-03T09:38:00.408Z,1.27
2022-09-03T09:40:33.188Z,1.27
2022-09-03T09:43:17.628Z,1.55
2022-09-03T09:45:46.764Z,1.65
2022-09-03T09:48:34.648Z,1.90
2022-09-03T09:51:33.852Z,1.33
2022-09-03T09:54:27.934Z,1.33
2022-09-03T09:57:07.482Z,1.40
2022-09-03T09:59:35.622Z,1.73
2022-09-03T10:02:36.726Z,1.30
2022-09-03T10:05:25.406Z,1.70
2022-09-03T10:08:00.867Z,1.30
2022-09-03T10:10:31.984Z,1.10
2022-09-03T10:13:15.393Z,1.25
2022-09-03T10:15:51.494Z,1.30
2022-09-03T10:18:42.991Z,1.23
2022-09-03T10:21:18.293Z,1.60
2022-09-03T10:23:59.620Z,1.42
2022-09-03T10:26:33.129Z,1.40
2022-09-03T10:29:03.744Z,1.17
2022-09-03T10:32:02.424Z,1.75
2022-09-03T10:35:04.446Z,1.23
2022-09-03T10:37:51.070Z,1.20
2022-09-03T10:40:33.247Z,1.38
2022-09-03T10:43:09.669Z,1.20
2022-09-03T10:46:00.168Z,1.30
2022-09-03T10:48:39.614Z,1.23
2022-09-03T10:51:12.239Z,1.73
2022-09-03T10:53:53.886Z,1.30
2022-09-03T10:56:43.154Z,1.25
2022-09-03T10:59:45.846Z,1.23
2022-09-03T11:02:48.481Z,1.63
2022-09-03T11:05:35.390Z,1.40
2022-09-03T11:08:07.030Z,0.82
2022-09-03T11:10:41.096Z,1.33
2022-09-03T11:13:22.531Z,1.30
2022-09-03T11:16:01.255Z,1.02
2022-09-03T11:18:50.585Z,1.10
2022-09-03T11:21:22.299Z,1.30
2022-09-03T11:24:00.597Z,1.20
2022-09-03T11:26:29.715Z,1.13
2022-09-03T11:29:14.407Z,1.30
2022-09-03T11:32:03.881Z,1.27
2022-09-03T11:34:49.109Z,0.90
2022-09-03T11:37:24.320Z,0.68
2022-09-03T11:39:59.102Z,1.40
2022-09-03T11:42:31.508Z,1.00
2022-09-03T11:45:30.201Z,1.10
2022-09-03T11:47:58.303Z,1.00
2022-09-03T11:50:28.126Z,0.98
2022-09-03T11:53:13.601Z,0.80
2022-09-03T11:55:54.959Z,0.90
2022-09-03T11:58:35.207Z,1.00
2022-09-03T12:01:04.694Z,0.70
2022-09-03T12:03:50.379Z,1.05
2022-09-03T12:06:26.430Z,0.80
2022-09-03T12:09:08.408Z,0.98
2022-09-03T12:11:38.291Z,1.00
2022-09-03T12:14:20.623Z,1.00
2022-09-03T12:17:11.769Z,0.93
2022-09-03T12:19:45.709Z,1.00
2022-09-03T12:22:17.672Z,0.75
2022-09-03T12:24:45.035Z,0.70
2022-09-03T12:27:24.777Z,1.20
2022-09-03T12:30:04.135Z,0.85
2022-09-03T12:32:39.456Z,0.95
2022-09-03T12:38:09.918Z,0.95
2022-09-03T12:43:40.787Z,0.90
2022-09-03T12:46:15.958Z,0.90
2022-09-03T12:51:56.036Z,1.20
2022-09-03T12:54:25.419Z,1.30
2022-09-03T12:56:59.766Z,1.00
2022-09-03T12:59:33.302Z,0.75
2022-09-03T13:02:06.742Z,1.15
2022-09-03T13:04:37.027Z,1.05
2022-09-03T13:07:22.662Z,1.10
2022-09-03T13:09:50.064Z,0.50
2022-09-03T13:12:33.640Z,1.35
2022-09-03T13:15:09.361Z,0.95
2022-09-03T13:18:03.206Z,0.95
2022-09-03T13:20:45.488Z,1.00
2022-09-03T13:23:22.525Z,1.00
2022-09-03T13:26:06.382Z,2.30
2022-09-03T13:29:14.789Z,1.45
2022-09-03T13:31:47.667Z,1.30
2022-09-03T13:34:24.160Z,0.60
2022-09-03T13:37:04.829Z,0.85
2022-09-03T13:39:38.965Z,0.80
2022-09-03T13:42:23.103Z,1.02
2022-09-03T13:45:02.193Z,1.00
2022-09-03T13:48:02.949Z,0.75
2022-09-03T13:50:35.461Z,0.70
2022-09-03T13:53:11.492Z,0.70
2022-09-03T13:55:49.169Z,0.70
2022-09-03T13:58:27.796Z,0.73
2022-09-03T14:01:03.175Z,1.02
2022-09-03T14:03:48.970Z,0.90
2022-09-03T14:06:31.229Z,0.90
2022-09-03T14:09:27.038Z,1.00
2022-09-03T14:12:01.804Z,0.80
2022-09-03T14:14:55.899Z,0.80
2022-09-03T14:17:56.111Z,1.13
2022-09-03T14:20:41.460Z,0.98
2022-09-03T14:23:40.739Z,1.10
2022-09-03T14:26:15.839Z,1.23
2022-09-03T14:28:50.160Z,0.80
2022-09-03T14:31:52.420Z,0.90
2022-09-03T14:34:34.379Z,1.00
2022-09-03T14:37:38.573Z,1.33
2022-09-03T14:40:16.512Z,0.93
2022-09-03T14:42:46.083Z,0.73
2022-09-03T14:45:18.780Z,0.70
2022-09-03T14:47:57.520Z,1.00
2022-09-03T14:50:43.588Z,1.10
2022-09-03T14:53:41.902Z,1.20
2022-09-03T14:56:38.715Z,1.42
2022-09-03T14:59:47.354Z,1.27
2022-09-03T15:02:42.209Z,1.10
2022-09-03T15:05:46.589Z,1.17
2022-09-03T15:08:42.976Z,1.00
2022-09-03T15:11:22.213Z,0.73
2022-09-03T15:14:02.746Z,1.52
2022-09-03T15:16:53.551Z,1.13
2022-09-03T15:19:53.151Z,1.30
2022-09-03T15:22:27.075Z,1.45
2022-09-03T15:24:59.760Z,1.50
2022-09-03T15:27:38.860Z,0.95
2022-09-03T15:30:21.034Z,0.90
2022-09-03T15:32:54.142Z,0.95
2022-09-03T15:35:52.273Z,1.00
2022-09-03T15:38:37.963Z,1.08
2022-09-03T15:41:31.119Z,1.05
2022-09-03T15:44:01.343Z,1.48
2022-09-03T15:46:59.481Z,2.22
2022-09-03T15:49:46.392Z,2.60
2022-09-03T15:52:55.266Z,2.53
2022-09-03T15:55:31.144Z,1.48
2022-09-03T15:58:25.751Z,1.52
2022-09-03T16:01:09.848Z,1.88
2022-09-03T16:03:46.908Z,1.52
2022-09-03T16:06:38.455Z,2.63
2022-09-03T16:09:29.960Z,1.58
2022-09-03T16:12:24.666Z,1.50
2022-09-03T16:15:03.347Z,1.88
2022-09-03T16:17:43.470Z,1.77
2022-09-03T16:20:42.278Z,1.45
2022-09-03T16:23:21.476Z,1.77
2022-09-03T16:25:55.604Z,2.30
2022-09-03T16:28:42.916Z,2.55
2022-09-03T16:31:22.939Z,2.00
2022-09-03T16:34:01.912Z,1.75
2022-09-03T16:36:54.051Z,1.90
2022-09-03T16:39:21.111Z,2.28
2022-09-03T16:42:02.967Z,2.45
2022-09-03T16:44:56.891Z,1.92
2022-09-03T16:47:52.191Z,2.75
2022-09-03T16:51:10.034Z,2.72
2022-09-03T16:54:05.728Z,2.22
2022-09-03T16:56:41.499Z,2.03
2022-09-03T16:59:20.179Z,1.98
2022-09-03T17:02:13.867Z,2.60
2022-09-03T17:05:13.744Z,2.60
2022-09-03T17:08:06.532Z,3.88
2022-09-03T17:11:00.737Z,4.30
2022-09-03T17:14:00.004Z,4.10
2022-09-03T17:16:35.598Z,4.10
2022-09-03T17:19:29.416Z,3.70
2022-09-03T17:22:19.500Z,4.22
2022-09-03T17:24:55.176Z,4.70
2022-09-03T17:27:39.775Z,4.15
2022-09-03T17:30:16.788Z,4.63
2022-09-03T17:33:07.835Z,4.43
2022-09-03T17:36:07.599Z,4.20
2022-09-03T17:39:02.196Z,4.38
2022-09-03T17:41:46.604Z,4.68
2022-09-03T17:44:21.640Z,5.38
2022-09-03T17:47:19.112Z,5.10
2022-09-03T17:49:52.162Z,4.15
2022-09-03T17:52:35.465Z,4.20
2022-09-03T17:55:14.189Z,4.43
2022-09-03T17:57:48.223Z,5.00
2022-09-03T18:00:51.990Z,5.10
2022-09-03T18:03:35.915Z,4.57
2022-09-03T18:06:09.873Z,5.43
2022-09-03T18:09:05.032Z,5.20
2022-09-03T18:11:39.384Z,5.80
2022-09-03T18:14:15.782Z,5.32
2022-09-03T18:17:07.075Z,5.03
2022-09-03T18:19:57.966Z,6.03
2022-09-03T18:23:03.000Z,5.13
2022-09-03T18:25:51.096Z,7.43
2022-09-03T18:28:43.759Z,7.70
2022-09-03T18:31:34.529Z,7.13
2022-09-03T18:34:22.258Z,7.45
2022-09-03T18:37:11.198Z,6.85
2022-09-03T18:39:56.546Z,7.38
2022-09-03T18:43:30.311Z,7.72
2022-09-03T18:50:21.070Z,7.57
2022-09-03T18:53:54.317Z,7.90
2022-09-03T18:56:40.149Z,8.48
2022-09-03T18:59:59.654Z,9.23
2022-09-03T19:03:03.674Z,8.23
2022-09-03T19:06:08.234Z,10.10
2022-09-03T19:09:11.079Z,10.85
2022-09-03T19:12:15.066Z,12.43
2022-09-03T19:15:25.914Z,13.82
2022-09-03T19:18:17.025Z,14.38
2022-09-03T19:21:23.271Z,13.70
2022-09-03T19:24:10.345Z,15.77
2022-09-03T19:27:37.561Z,14.27
2022-09-03T19:30:30.732Z,14.27
2022-09-03T19:33:30.254Z,14.80
2022-09-03T19:36:18.727Z,14.13
2022-09-03T19:39:46.904Z,15.57
2022-09-03T19:42:45.170Z,16.40
2022-09-03T19:45:49.090Z,16.35
2022-09-03T19:49:10.366Z,14.70
2022-09-03T19:52:15.667Z,12.43
2022-09-03T19:55:06.092Z,11.88
2022-09-03T19:57:51.661Z,10.93
2022-09-03T20:00:37.507Z,10.18
2022-09-03T20:03:24.920Z,9.95
2022-09-03T20:06:11.631Z,10.00
2022-09-03T20:08:59.486Z,10.30
2022-09-03T20:11:30.443Z,9.63
2022-09-03T20:14:15.323Z,10.80
2022-09-03T20:17:05.013Z,9.02
2022-09-03T20:19:41.043Z,8.18
2022-09-03T20:22:10.997Z,7.75
2022-09-03T20:24:59.659Z,8.00
2022-09-03T20:27:50.540Z,7.40
2022-09-03T20:30:26.364Z,8.45
2022-09-03T20:33:22.699Z,8.10
2022-09-03T20:35:58.911Z,7.17
2022-09-03T20:38:35.204Z,8.02
2022-09-03T20:41:32.260Z,8.10
2022-09-03T20:44:24.170Z,7.33
2022-09-03T20:46:57.034Z,7.03
2022-09-03T20:49:59.197Z,5.70
2022-09-03T20:53:08.251Z,5.88
2022-09-03T20:55:57.722Z,5.80
2022-09-03T20:58:39.270Z,5.05
2022-09-03T21:01:09.574Z,4.75
2022-09-03T21:04:10.707Z,4.73
2022-09-03T21:07:01.746Z,4.55
2022-09-03T21:09:57.094Z,5.10
2022-09-03T21:12:38.582Z,5.47
2022-09-03T21:15:30.934Z,4.82
2022-09-03T21:18:13.560Z,4.88
2022-09-03T21:21:00.137Z,4.28
2022-09-03T21:23:50.135Z,5.55
2022-09-03T21:26:26.091Z,5.13
2022-09-03T21:29:02.748Z,5.55
2022-09-03T21:31:38.740Z,6.90
2022-09-03T21:34:20.441Z,6.70
2022-09-03T21:36:49.489Z,6.78
2022-09-03T21:39:35.027Z,8.80
2022-09-03T21:42:17.737Z,10.88
2022-09-03T21:44:53.691Z,10.35
2022-09-03T21:47:22.494Z,9.37
2022-09-03T21:50:17.074Z,11.27
2022-09-03T21:52:58.214Z,8.88
2022-09-03T21:55:46.908Z,7.25
2022-09-03T21:58:35.660Z,7.03
2022-09-03T22:01:26.462Z,6.20
2022-09-03T22:03:54.501Z,6.10
2022-09-03T22:06:36.730Z,5.80
2022-09-03T22:09:43.491Z,5.57
2022-09-03T22:12:18.459Z,4.97
2022-09-03T22:14:51.046Z,5.23
2022-09-03T22:17:47.188Z,6.10
2022-09-03T22:20:15.601Z,5.57
2022-09-03T22:22:52.467Z,5.13
2022-09-03T22:25:31.953Z,5.67
2022-09-03T22:28:15.323Z,5.60
2022-09-03T22:30:51.378Z,6.70
2022-09-03T22:33:41.497Z,5.60
2022-09-03T22:36:15.460Z,5.30
2022-09-03T22:39:24.492Z,5.60
2022-09-03T22:42:39.400Z,6.17
2022-09-03T22:45:21.207Z,5.70
2022-09-03T22:48:19.200Z,5.40
2022-09-03T22:50:52.659Z,5.90
2022-09-03T22:53:45.887Z,5.40
2022-09-03T22:56:22.518Z,5.70
2022-09-03T22:59:02.524Z,5.47
2022-09-03T23:01:38.552Z,6.20
2022-09-03T23:04:28.615Z,5.83
2022-09-03T23:07:11.566Z,5.57
2022-09-03T23:09:43.073Z,6.87
2022-09-03T23:12:20.243Z,6.13
2022-09-03T23:14:54.440Z,5.47
2022-09-03T23:22:44.298Z,6.47
2022-09-03T23:25:20.445Z,6.47
2022-09-03T23:27:59.008Z,6.60
2022-09-03T23:30:25.977Z,6.53
2022-09-03T23:32:57.223Z,6.30
2022-09-03T23:35:30.087Z,6.80
2022-09-03T23:38:11.410Z,6.20
2022-09-03T23:40:45.264Z,6.47
2022-09-03T23:43:12.080Z,6.33
2022-09-03T23:45:46.100Z,6.43
2022-09-03T23:48:41.116Z,6.07
2022-09-03T23:51:32.765Z,6.03
2022-09-03T23:54:27.767Z,7.00
2022-09-03T23:57:00.732Z,6.93
2022-09-03T23:59:48.046Z,6.03
